createdAt,value
2022-09-23T00:00:49.961Z,100698.81
2022-09-23T00:06:03.929Z,100737.81
2022-09-23T00:11:12.439Z,100638.53
2022-09-23T00:16:17.844Z,100547.38
2022-09-23T00:21:22.025Z,100737.06
2022-09-23T00:26:24.785Z,100692.16
2022-09-23T00:31:27.840Z,100612.19
2022-09-23T00:36:32.663Z,100490.72
2022-09-23T00:41:35.819Z,100690.28
2022-09-23T00:46:44.183Z,100706.03
2022-09-23T00:51:55.007Z,100522.47
2022-09-23T00:57:00.361Z,100540.59
2022-09-23T01:02:03.820Z,100731.06
2022-09-23T01:07:06.457Z,100729.75
2022-09-23T01:12:30.275Z,100731.75
2022-09-23T01:17:41.342Z,100729.19
2022-09-23T01:23:12.559Z,100737.41
2022-09-23T01:28:34.127Z,100720.63
2022-09-23T01:33:48.077Z,100722.22
2022-09-23T01:39:22.881Z,100755.75
2022-09-23T01:45:07.649Z,100735.88
2022-09-23T01:50:40.417Z,100685.06
2022-09-23T01:55:49.674Z,100719.22
2022-09-23T02:01:07.812Z,100680.63
2022-09-23T02:06:36.377Z,100715.94
2022-09-23T02:11:43.254Z,100707.94
2022-09-23T02:16:49.240Z,100623.91
2022-09-23T02:21:59.750Z,100640.25
2022-09-23T02:27:30.831Z,100683.88
2022-09-23T02:32:53.861Z,100721.38
2022-09-23T02:38:20.757Z,100722.25
2022-09-23T02:43:34.464Z,100716.53
2022-09-23T02:48:42.224Z,100676.41
2022-09-23T02:53:46.333Z,100712.66
2022-09-23T02:58:54.832Z,100719.66
2022-09-23T03:04:18.864Z,100733.53
2022-09-23T03:09:37.378Z,100743.75
2022-09-23T03:15:04.476Z,100718.47
2022-09-23T03:20:21.372Z,100666.13
2022-09-23T03:25:26.622Z,100686.69
2022-09-23T03:30:30.547Z,100750.34
2022-09-23T03:35:56.228Z,100723.94
2022-09-23T03:41:03.428Z,100731.97
2022-09-23T03:46:07.619Z,100708.19
2022-09-23T03:51:22.616Z,100715.63
2022-09-23T03:56:25.100Z,100714.81
2022-09-23T04:01:27.522Z,100722.78
2022-09-23T04:06:29.894Z,100716.13
2022-09-23T04:11:32.283Z,100650.47
2022-09-23T04:16:34.725Z,100742.25
2022-09-23T04:21:37.429Z,100726.69
2022-09-23T04:26:40.715Z,100588.38
2022-09-23T04:31:43.258Z,100694.53
2022-09-23T04:36:47.139Z,100626.78
2022-09-23T04:41:49.589Z,100660.13
2022-09-23T04:46:52.246Z,100656.00
2022-09-23T04:51:54.814Z,100640.84
2022-09-23T04:56:57.247Z,100695.47
2022-09-23T05:01:59.792Z,100587.31
2022-09-23T05:07:03.517Z,100771.06
2022-09-23T05:12:06.554Z,100700.66
2022-09-23T05:17:15.054Z,100612.06
2022-09-23T05:22:17.374Z,100738.97
2022-09-23T05:27:20.846Z,100612.88
2022-09-23T05:32:23.414Z,100765.53
2022-09-23T05:37:26.237Z,100629.06
2022-09-23T05:42:29.089Z,100765.78
2022-09-23T05:47:31.378Z,100769.06
2022-09-23T05:52:35.324Z,100744.31
2022-09-23T05:57:37.873Z,100752.19
2022-09-23T06:02:40.505Z,100779.16
2022-09-23T06:07:42.921Z,100799.25
2022-09-23T06:12:45.546Z,100792.13
2022-09-23T06:17:51.138Z,100820.31
2022-09-23T06:22:55.616Z,100686.91
2022-09-23T06:27:59.715Z,100797.97
2022-09-23T06:33:02.446Z,100737.59
2022-09-23T06:38:07.607Z,100796.06
2022-09-23T06:43:10.014Z,100698.63
2022-09-23T06:48:12.624Z,100769.81
2022-09-23T06:53:14.942Z,100770.88
2022-09-23T06:58:17.205Z,100724.78
2022-09-23T07:03:19.535Z,100748.44
2022-09-23T07:08:21.919Z,100760.16
2022-09-23T07:13:24.737Z,100772.84
2022-09-23T07:18:27.922Z,100671.88
2022-09-23T07:23:30.233Z,100772.94
2022-09-23T07:28:32.764Z,100757.16
2022-09-23T07:33:45.071Z,100662.25
2022-09-23T07:38:48.001Z,100730.28
2022-09-23T07:43:51.102Z,100722.91
2022-09-23T07:48:53.894Z,100777.00
2022-09-23T07:53:57.205Z,100792.69
2022-09-23T07:59:04.291Z,100797.63
2022-09-23T08:04:13.662Z,100742.47
2022-09-23T08:09:17.884Z,100798.25
2022-09-23T08:14:20.309Z,100789.56
2022-09-23T08:19:22.587Z,100804.28
2022-09-23T08:24:26.999Z,100795.28
2022-09-23T08:29:29.409Z,100811.03
2022-09-23T08:34:31.742Z,100756.59
2022-09-23T08:39:34.018Z,100823.59
2022-09-23T08:45:29.680Z,100801.94
2022-09-23T08:50:47.078Z,100808.28
2022-09-23T08:55:52.386Z,100806.34
2022-09-23T09:01:19.933Z,100818.63
2022-09-23T09:06:27.089Z,100813.00
2022-09-23T09:11:39.539Z,100806.03
2022-09-23T09:17:00.126Z,100812.09
2022-09-23T09:22:09.848Z,100804.50
2022-09-23T09:27:13.793Z,100798.53
2022-09-23T09:32:36.788Z,100759.47
2022-09-23T09:37:50.043Z,100710.94
2022-09-23T09:42:52.521Z,100762.31
2022-09-23T09:48:04.040Z,100653.09
2022-09-23T09:53:22.357Z,100747.66
2022-09-23T09:58:42.130Z,100766.56
2022-09-23T10:03:49.460Z,100729.94
2022-09-23T10:09:12.828Z,100762.66
2022-09-23T10:14:18.643Z,100756.03
2022-09-23T10:19:27.877Z,100746.34
2022-09-23T10:24:32.742Z,100710.72
2022-09-23T10:29:47.243Z,100736.13
2022-09-23T10:34:57.603Z,100735.84
2022-09-23T10:40:20.360Z,100613.34
2022-09-23T10:45:46.437Z,100585.56
2022-09-23T10:50:54.832Z,100677.28
2022-09-23T10:56:21.021Z,100698.44
2022-09-23T11:01:41.363Z,100689.97
2022-09-23T11:07:07.853Z,100696.81
2022-09-23T11:12:38.683Z,100640.94
2022-09-23T11:17:49.757Z,100702.75
2022-09-23T11:23:00.825Z,100705.94
2022-09-23T11:28:20.845Z,100679.34
2022-09-23T11:33:41.144Z,100702.69
2022-09-23T11:38:47.169Z,100658.94
2022-09-23T11:43:56.586Z,100679.53
2022-09-23T11:49:07.921Z,100689.91
2022-09-23T11:54:20.689Z,100672.88
2022-09-23T11:59:41.422Z,100676.78
2022-09-23T12:04:56.912Z,100656.72
2022-09-23T12:10:06.018Z,100662.38
2022-09-23T12:15:32.544Z,100640.34
2022-09-23T12:21:03.767Z,100649.78
2022-09-23T12:26:10.142Z,100630.22
2022-09-23T12:31:16.067Z,100565.56
2022-09-23T12:36:27.509Z,100475.66
2022-09-23T12:41:38.011Z,100530.06
2022-09-23T12:46:45.081Z,100511.41
2022-09-23T12:52:26.456Z,100631.78
2022-09-23T12:57:35.180Z,100604.25
2022-09-23T13:02:45.001Z,100597.41
2022-09-23T13:07:49.390Z,100592.00
2022-09-23T13:12:53.497Z,100567.44
2022-09-23T13:18:23.595Z,100593.50
2022-09-23T13:23:33.462Z,100456.25
2022-09-23T13:28:57.268Z,100421.47
2022-09-23T13:34:08.538Z,100447.22
2022-09-23T13:39:17.323Z,100481.75
2022-09-23T13:44:24.061Z,100508.31
2022-09-23T13:49:34.533Z,100517.63
2022-09-23T13:54:59.784Z,100526.34
2022-09-23T14:00:24.433Z,100436.50
2022-09-23T14:05:38.970Z,100559.25
2022-09-23T14:10:50.078Z,100469.47
2022-09-23T14:15:55.927Z,100535.78
2022-09-23T14:20:58.396Z,100477.44
2022-09-23T14:26:03.218Z,100557.19
2022-09-23T14:31:06.023Z,100555.50
2022-09-23T14:36:38.150Z,100467.19
2022-09-23T14:41:49.766Z,100552.94
2022-09-23T14:47:01.034Z,100578.19
2022-09-23T14:52:07.455Z,100588.91
2022-09-23T14:57:31.926Z,100570.31
2022-09-23T15:08:45.256Z,100505.44
2022-09-23T15:13:52.449Z,100528.50
2022-09-23T15:19:01.294Z,100586.84
2022-09-23T15:24:03.728Z,100573.63
2022-09-23T15:29:10.223Z,100609.78
2022-09-23T15:34:12.728Z,100594.50
2022-09-23T15:39:15.453Z,100614.78
2022-09-23T15:44:29.951Z,100624.13
2022-09-23T15:49:47.513Z,100633.25
2022-09-23T15:54:50.145Z,100615.44
2022-09-23T15:59:58.866Z,100601.56
2022-09-23T16:05:08.365Z,100634.38
2022-09-23T16:10:15.352Z,100657.78
2022-09-23T16:15:21.453Z,100543.09
2022-09-23T16:20:24.379Z,100540.41
2022-09-23T16:25:30.393Z,100645.78
2022-09-23T16:30:34.481Z,100646.13
2022-09-23T16:35:40.332Z,100662.66
2022-09-23T16:40:47.023Z,100600.94
2022-09-23T16:45:49.940Z,100643.44
2022-09-23T16:50:54.546Z,100653.19
2022-09-23T16:55:59.393Z,100707.00
2022-09-23T17:01:20.659Z,100582.59
2022-09-23T17:06:24.393Z,100728.84
2022-09-23T17:11:34.154Z,100731.78
2022-09-23T17:16:37.078Z,100670.38
2022-09-23T17:21:45.503Z,100728.75
2022-09-23T17:26:52.152Z,100747.41
2022-09-23T17:31:57.162Z,100710.19
2022-09-23T17:36:59.732Z,100711.91
2022-09-23T17:42:02.211Z,100717.56
2022-09-23T17:47:06.793Z,100765.94
2022-09-23T17:52:09.399Z,100648.16
2022-09-23T17:57:14.133Z,100681.16
2022-09-23T18:02:19.535Z,100657.28
2022-09-23T18:07:24.146Z,100644.59
2022-09-23T18:12:30.793Z,100659.88
2022-09-23T18:17:35.463Z,100664.94
2022-09-23T18:22:38.046Z,100675.63
2022-09-23T18:27:40.790Z,100818.84
2022-09-23T18:32:47.738Z,100623.38
2022-09-23T18:38:19.504Z,100597.63
2022-09-23T18:43:25.715Z,100696.53
2022-09-23T18:48:49.758Z,100778.66
2022-09-23T18:53:58.159Z,100733.97
2022-09-23T18:59:01.242Z,100768.88
2022-09-23T19:04:08.957Z,100616.88
2022-09-23T19:09:12.564Z,100772.34
2022-09-23T19:14:18.784Z,100849.03
2022-09-23T19:19:22.680Z,100794.75
2022-09-23T19:24:25.423Z,100725.63
2022-09-23T19:29:28.802Z,100722.44
2022-09-23T19:34:38.575Z,100805.38
2022-09-23T19:39:41.268Z,100762.47
2022-09-23T19:44:44.920Z,100821.78
2022-09-23T19:49:49.250Z,100793.41
2022-09-23T19:54:53.087Z,100825.09
2022-09-23T19:59:58.654Z,100842.88
2022-09-23T20:05:02.459Z,100853.25
2022-09-23T20:10:05.379Z,100739.75
2022-09-23T20:15:08.223Z,100756.19
2022-09-23T20:20:13.266Z,100898.09
2022-09-23T20:25:15.573Z,100892.91
2022-09-23T20:30:18.263Z,100898.34
2022-09-23T20:35:20.790Z,100840.56
2022-09-23T20:40:23.694Z,100919.38
2022-09-23T20:45:26.608Z,100790.50
2022-09-23T20:50:30.850Z,100798.78
2022-09-23T20:55:37.172Z,100801.28
2022-09-23T21:00:40.058Z,100806.91
2022-09-23T21:05:49.007Z,100797.75
2022-09-23T21:10:58.838Z,100930.41
2022-09-23T21:16:05.536Z,100820.16
2022-09-23T21:21:08.634Z,100805.16
2022-09-23T21:26:20.317Z,100824.53
2022-09-23T21:31:26.198Z,100871.09
2022-09-23T21:36:34.406Z,100814.72
2022-09-23T21:41:37.758Z,100818.81
2022-09-23T21:46:41.869Z,100932.66
2022-09-23T21:51:44.511Z,100927.88
2022-09-23T21:56:46.932Z,100944.47
2022-09-23T22:01:54.031Z,100951.53
2022-09-23T22:06:57.848Z,100963.22
2022-09-23T22:12:05.738Z,100826.84
2022-09-23T22:17:11.878Z,100932.59
2022-09-23T22:22:16.977Z,100941.31
2022-09-23T22:27:20.294Z,100929.19
2022-09-23T22:32:35.675Z,100955.59
2022-09-23T22:37:38.169Z,100953.91
2022-09-23T22:42:42.815Z,100988.88
2022-09-23T22:47:46.587Z,100962.06
2022-09-23T22:52:49.164Z,100927.63
2022-09-23T22:57:52.156Z,100845.06
2022-09-23T23:02:55.099Z,100834.28
2022-09-23T23:07:58.072Z,100840.72
2022-09-23T23:13:00.421Z,100819.84
2022-09-23T23:18:02.888Z,100753.28
2022-09-23T23:23:06.058Z,100781.84
2022-09-23T23:28:08.442Z,100845.91
2022-09-23T23:33:10.900Z,100990.06
2022-09-23T23:38:13.599Z,100958.16
2022-09-23T23:43:16.095Z,100861.81
2022-09-23T23:48:19.933Z,100763.94
2022-09-23T23:53:27.235Z,100844.31
2022-09-23T23:58:30.177Z,100966.34
